Schedule Details

Flight Number: CPX716
Departure: General Omar Torrijos International Airport (MPTO) at N/A
Arrival: Miami International Airport (KMIA) at N/A
Route: TASNO UL780 URSUS FLIPR6


Current Weather Information
MPTO 180600Z 00000KT CAVOK 26/22 Q1012 NOSIG
KMIA 180453Z 14007KT 10SM FEW025 SCT050 SCT065 24/23 A3005 RMK AO2 SLP176 T02440233 402830189

Route Map